Airfield :
LOGIN :

Register | Disclaimer

   EN    FR    IT 

 










Legend :    VFR   Marginal VFR   IFR   Intensive IFR   Very Intensive IFR
Visi :
Ceiling :
>= 8 km
>= 3000ft
5 to 8 km
1000 to 3000 ft
1500m to 5 km
500 to 1000 ft
800 to 1500m
200 to 500 ft
< 800m
< 200 ft
Symbols :   Thunderstorms  Fog  Heavy snow  Heavy precipitations  Wind > 20 kt
SIGMETs :     Misc.  Thunderstorms  Icing  Turbulence  Mountain Waves  Volcanic Ashes






- Airport Elevation : 3463 ft
- IATA code : ASR


LTAU - Erkilet AB

CURRENT METAR :
  • 071620Z 36009KT 9999 FEW040 29/10 Q1007 NOSIG RMK RWY07 33009KT 300V360

EXPIRED METARs :
  • 071550Z 01009KT 9999 FEW040 30/10 Q1007 NOSIG RMK RWY07 33012KT
  • 071520Z 36007KT 9999 FEW040 31/11 Q1007 NOSIG RMK RWY07 32009KT 290V350
  • 071450Z 35009KT 320V030 9999 FEW040 32/10 Q1007 NOSIG RMK RWY07 30009KT
  • 071420Z 34012KT 9999 FEW040 32/10 Q1007 NOSIG RMK RWY07 32010KT 280V360
  • 071350Z 33011KT 290V360 9999 FEW040 32/10 Q1007 NOSIG RMK RWY07 31010KT 270V340

TAF TAF LTAU
Valid from the 07 at 12:00 until the 08 at 12:00 UTC


071040Z 0712/0812 07007KT 9999 FEW040
BECMG 0712/0714 36012KT
BECMG 0717/0719 07007KT CAVOK
BECMG 0806/0809 FEW040



MET'MAP, your aeronautical weather chart ! - Copyright ORBIFLY December 2007 - Disclaimer

ORBIFLY MET'MAP TEAM :

Programming & Development : Alexandra Zaïnal
Original concept : Baudouin d'Aumeries
Technical & hardware support : Manuel Goepfert
Assistance : Marc-Olivier Méhu




SOURCES & CREDITS :

   NOAA